createdAt,value
2022-10-09T00:01:30.970Z,55551.41
2022-10-09T00:04:00.353Z,55372.38
2022-10-09T00:06:32.117Z,55356.47
2022-10-09T00:09:02.048Z,55503.66
2022-10-09T00:11:32.212Z,55451.94
2022-10-09T00:14:01.130Z,55388.28
2022-10-09T00:16:29.972Z,55362.44
2022-10-09T00:18:59.265Z,55390.28
2022-10-09T00:21:31.617Z,55587.22
2022-10-09T00:24:03.003Z,55471.84
2022-10-09T00:26:31.750Z,55360.44
2022-10-09T00:29:00.806Z,55426.09
2022-10-09T00:31:29.531Z,55356.47
2022-10-09T00:33:58.090Z,55298.78
2022-10-09T00:36:28.168Z,55790.13
2022-10-09T00:38:57.993Z,55549.41
2022-10-09T00:41:29.001Z,55428.06
2022-10-09T00:43:59.608Z,55428.06
2022-10-09T00:46:36.297Z,55471.84
2022-10-09T00:49:16.894Z,55384.31
2022-10-09T00:51:47.428Z,55483.78
2022-10-09T00:54:21.251Z,55356.47
2022-10-09T00:56:51.126Z,55324.63
2022-10-09T00:59:20.965Z,55475.81
2022-10-09T01:01:49.548Z,55551.41
2022-10-09T01:04:18.345Z,55509.63
2022-10-09T01:07:00.956Z,55479.78
2022-10-09T01:09:39.799Z,55424.09
2022-10-09T01:12:16.406Z,55438.03
2022-10-09T01:14:52.249Z,55422.09
2022-10-09T01:17:29.797Z,55547.44
2022-10-09T01:20:27.391Z,55738.41
2022-10-09T01:23:08.031Z,55682.69
2022-10-09T01:25:46.940Z,55569.31
2022-10-09T01:28:20.384Z,55515.59
2022-10-09T01:30:50.153Z,55495.69
2022-10-09T01:33:19.521Z,55384.31
2022-10-09T01:35:48.506Z,55274.91
2022-10-09T01:38:18.908Z,55455.91
2022-10-09T01:40:50.025Z,55722.47
2022-10-09T01:43:19.966Z,55581.25
2022-10-09T01:45:50.184Z,55710.56
2022-10-09T01:48:23.756Z,55861.75
2022-10-09T01:50:57.180Z,55921.44
2022-10-09T01:53:26.800Z,55646.88
2022-10-09T01:56:03.021Z,55525.53
2022-10-09T01:58:37.582Z,55483.78
2022-10-09T02:01:10.577Z,55477.81
2022-10-09T02:03:42.686Z,55587.22
2022-10-09T02:06:14.113Z,55666.78
2022-10-09T02:08:44.947Z,55668.78
2022-10-09T02:11:16.197Z,55567.31
2022-10-09T02:13:47.622Z,55471.84
2022-10-09T02:16:21.017Z,55517.59
2022-10-09T02:18:55.059Z,55535.50
2022-10-09T02:21:25.878Z,55543.44
2022-10-09T02:23:56.183Z,55481.78
2022-10-09T02:26:25.144Z,55457.91
2022-10-09T02:28:55.118Z,55535.50
2022-10-09T02:31:28.354Z,55589.19
2022-10-09T02:33:57.996Z,55623.03
2022-10-09T02:36:27.766Z,55650.88
2022-10-09T02:38:57.493Z,55658.81
2022-10-09T02:41:26.763Z,55802.06
2022-10-09T02:43:56.913Z,55595.16
2022-10-09T02:46:25.869Z,55475.81
2022-10-09T02:48:54.399Z,55511.63
2022-10-09T02:51:22.963Z,55511.63
2022-10-09T02:53:53.828Z,55507.63
2022-10-09T02:56:22.946Z,55533.50
2022-10-09T02:58:51.450Z,55539.47
2022-10-09T03:01:22.219Z,55523.56
2022-10-09T03:03:50.617Z,55471.84
2022-10-09T03:06:21.160Z,55451.94
2022-10-09T03:08:50.941Z,55467.84
2022-10-09T03:11:20.568Z,55648.88
2022-10-09T03:13:49.350Z,55525.53
2022-10-09T03:16:20.113Z,55561.34
2022-10-09T03:18:51.129Z,55597.16
2022-10-09T03:21:21.504Z,55698.63
2022-10-09T03:23:50.217Z,55593.19
2022-10-09T03:26:21.222Z,55424.09
2022-10-09T03:28:51.352Z,55642.91
2022-10-09T03:31:46.886Z,55778.19
2022-10-09T03:34:13.043Z,55593.19
2022-10-09T03:36:42.358Z,55465.88
2022-10-09T03:39:11.019Z,55678.72
2022-10-09T03:41:39.437Z,55899.53
2022-10-09T03:44:07.958Z,55611.09
2022-10-09T03:46:39.063Z,55555.38
2022-10-09T03:49:08.144Z,55537.47
2022-10-09T03:51:37.898Z,55567.31
2022-10-09T03:54:06.753Z,55642.91
2022-10-09T03:56:35.249Z,55579.25
2022-10-09T03:59:05.675Z,55654.84
2022-10-09T04:01:34.218Z,55728.44
2022-10-09T04:04:02.786Z,55601.13
2022-10-09T04:06:31.146Z,55629.00
2022-10-09T04:09:01.335Z,55658.81
2022-10-09T04:11:29.662Z,55607.09
2022-10-09T04:13:58.023Z,55587.22
2022-10-09T04:16:26.567Z,55519.56
2022-10-09T04:18:55.001Z,55734.41
2022-10-09T04:21:23.276Z,55674.75
2022-10-09T04:23:52.800Z,55549.41
2022-10-09T04:26:22.561Z,55652.84
2022-10-09T04:28:51.019Z,55601.13
2022-10-09T04:31:19.424Z,55575.28
2022-10-09T04:33:49.991Z,55445.97
2022-10-09T04:36:18.373Z,55511.63
2022-10-09T04:38:46.844Z,55607.09
2022-10-09T04:41:15.200Z,55587.22
2022-10-09T04:43:45.221Z,55475.81
2022-10-09T04:46:15.647Z,55750.34
2022-10-09T04:48:45.477Z,55810.03
2022-10-09T04:51:14.724Z,55760.28
2022-10-09T04:53:43.575Z,55873.69
2022-10-09T04:56:14.988Z,55712.53
2022-10-09T04:58:44.905Z,55772.22
2022-10-09T05:01:16.009Z,55674.75
2022-10-09T05:03:47.022Z,55658.81
2022-10-09T05:06:16.790Z,55762.28
2022-10-09T05:08:45.726Z,55794.09
2022-10-09T05:11:17.181Z,55619.03
2022-10-09T05:13:48.443Z,55823.94
2022-10-09T05:16:19.468Z,55915.47
2022-10-09T05:18:49.863Z,55682.69
2022-10-09T05:21:19.243Z,55664.78
2022-10-09T05:23:48.372Z,55794.09
2022-10-09T05:26:18.675Z,55979.13
2022-10-09T05:28:48.660Z,56140.28
2022-10-09T05:31:20.455Z,55905.50
2022-10-09T05:33:49.247Z,55839.84
2022-10-09T05:36:18.415Z,55929.38
2022-10-09T05:38:46.863Z,56024.88
2022-10-09T05:41:17.390Z,56110.44
2022-10-09T05:43:49.029Z,55961.22
2022-10-09T05:46:19.684Z,55863.72
2022-10-09T05:48:52.300Z,55969.19
2022-10-09T05:51:22.401Z,55917.44
2022-10-09T05:53:51.465Z,55851.78
2022-10-09T05:56:21.445Z,55957.25
2022-10-09T05:58:54.183Z,56114.41
2022-10-09T06:01:26.243Z,55927.41
2022-10-09T06:03:57.040Z,55933.38
2022-10-09T06:06:31.152Z,56150.22
2022-10-09T06:09:00.963Z,56363.13
2022-10-09T06:11:31.905Z,56339.25
2022-10-09T06:14:03.869Z,56383.03
2022-10-09T06:16:35.181Z,56369.09
2022-10-09T06:19:04.397Z,56172.13
2022-10-09T06:21:33.387Z,56116.41
2022-10-09T06:24:04.362Z,56176.09
2022-10-09T06:26:35.101Z,56311.38
2022-10-09T06:29:05.068Z,56524.28
2022-10-09T06:31:34.478Z,56591.94
2022-10-09T06:34:04.911Z,56587.97
2022-10-09T06:36:35.940Z,56540.22
2022-10-09T06:39:07.327Z,56593.94
2022-10-09T06:41:36.305Z,56966.06
2022-10-09T06:44:17.322Z,57499.44
2022-10-09T06:46:50.752Z,57706.47
2022-10-09T06:49:19.462Z,57688.53
2022-10-09T06:51:48.042Z,58116.53
2022-10-09T06:54:17.569Z,57831.88
2022-10-09T06:56:46.205Z,58407.19
2022-10-09T06:59:15.924Z,59376.94
2022-10-09T07:01:44.461Z,59954.50
2022-10-09T07:04:14.539Z,62433.28
2022-10-09T07:06:45.309Z,61899.13
2022-10-09T07:09:15.357Z,61759.59
2022-10-09T07:11:45.581Z,62166.19
2022-10-09T07:14:17.025Z,63041.28
2022-10-09T07:16:47.251Z,63940.53
2022-10-09T07:19:17.893Z,65717.81
2022-10-09T07:21:48.193Z,66631.75
2022-10-09T07:24:17.459Z,68739.94
2022-10-09T07:26:47.350Z,69870.41
2022-10-09T07:29:19.090Z,71151.16
2022-10-09T07:31:48.156Z,70627.59
2022-10-09T07:34:16.724Z,72978.16
2022-10-09T07:36:47.887Z,74770.16
2022-10-09T07:39:19.162Z,76306.91
2022-10-09T07:41:47.990Z,76306.91
2022-10-09T07:44:18.128Z,77588.03
2022-10-09T07:46:47.064Z,78356.94
2022-10-09T07:49:15.542Z,79382.44
2022-10-09T07:51:44.007Z,79126.03
2022-10-09T07:54:14.724Z,80664.72
2022-10-09T07:56:43.349Z,80664.72
2022-10-09T07:59:15.068Z,81177.78
2022-10-09T08:01:45.027Z,82204.09
2022-10-09T08:04:13.671Z,82974.03
2022-10-09T08:06:42.165Z,82204.09
2022-10-09T08:09:10.531Z,82717.38
2022-10-09T08:11:40.831Z,83487.44
2022-10-09T08:14:18.096Z,82717.38
2022-10-09T08:16:49.257Z,80408.22
2022-10-09T08:19:17.885Z,79895.28
2022-10-09T08:21:48.844Z,79895.28
2022-10-09T08:24:19.769Z,79382.44
2022-10-09T08:26:48.328Z,78869.66
2022-10-09T08:29:18.950Z,77844.31
2022-10-09T08:31:48.794Z,76563.09
2022-10-09T08:34:17.472Z,77588.03
2022-10-09T08:36:47.176Z,77075.53
2022-10-09T08:39:16.033Z,76563.09
2022-10-09T08:41:47.899Z,75026.22
2022-10-09T08:44:20.418Z,73490.06
2022-10-09T08:47:04.795Z,70783.47
2022-10-09T08:49:42.060Z,68152.88
2022-10-09T08:52:26.158Z,68941.63
2022-10-09T08:54:57.176Z,65203.09
2022-10-09T08:57:32.638Z,64939.78
2022-10-09T09:00:01.257Z,63876.72
2022-10-09T09:02:52.997Z,62688.44
2022-10-09T09:05:34.564Z,62122.34
2022-10-09T09:08:12.361Z,60637.78
2022-10-09T09:10:44.144Z,59737.41
2022-10-09T09:13:38.454Z,59305.22
2022-10-09T09:16:13.194Z,60004.31
2022-10-09T09:18:51.441Z,59835.00
2022-10-09T09:21:32.615Z,58616.25
2022-10-09T09:24:04.161Z,58526.66
2022-10-09T09:26:32.498Z,58026.94
2022-10-09T09:29:05.497Z,57798.03
2022-10-09T09:31:37.657Z,57284.50
2022-10-09T09:34:13.646Z,57145.19
2022-10-09T09:36:50.212Z,56609.84
2022-10-09T09:40:08.252Z,56450.66
2022-10-09T09:42:15.860Z,56128.34
2022-10-09T09:44:49.486Z,55714.53
2022-10-09T09:47:25.435Z,55652.84
2022-10-09T09:49:57.064Z,56028.84
2022-10-09T09:52:27.816Z,55638.94
2022-10-09T09:54:59.031Z,55660.81
2022-10-09T09:57:36.440Z,55296.78
2022-10-09T10:00:21.870Z,55185.41
2022-10-09T10:02:50.782Z,55235.13
2022-10-09T10:05:24.511Z,54934.78
2022-10-09T10:07:53.620Z,54716.00
2022-10-09T10:10:25.630Z,54552.94
2022-10-09T10:12:57.268Z,54544.97
2022-10-09T10:15:27.940Z,54435.59
2022-10-09T10:18:01.037Z,54409.75
2022-10-09T10:20:33.163Z,54358.06
2022-10-09T10:23:02.649Z,54238.75
2022-10-09T10:25:34.882Z,54306.34
2022-10-09T10:28:08.639Z,54282.50
2022-10-09T10:30:38.968Z,54274.53
2022-10-09T10:33:15.795Z,54254.66
2022-10-09T10:35:46.403Z,54248.69
2022-10-09T10:38:24.535Z,54206.94
2022-10-09T10:40:58.134Z,54107.50
2022-10-09T10:43:34.630Z,54043.88
2022-10-09T10:46:12.102Z,54008.09
2022-10-09T10:48:48.568Z,53956.38
2022-10-09T10:51:54.060Z,53930.53
2022-10-09T10:54:37.713Z,53924.56
2022-10-09T10:57:15.984Z,53922.59
2022-10-09T10:59:58.210Z,53884.81
2022-10-09T11:02:42.301Z,53841.06
2022-10-09T11:05:34.202Z,53787.38
2022-10-09T11:08:18.928Z,53823.16
2022-10-09T11:10:57.854Z,53751.59
2022-10-09T11:13:32.436Z,53805.28
2022-10-09T11:16:18.293Z,53733.69
2022-10-09T11:19:04.734Z,53741.66
2022-10-09T11:21:47.218Z,53709.84
2022-10-09T11:24:44.372Z,53684.00
2022-10-09T11:27:17.644Z,53687.97
2022-10-09T11:29:51.639Z,53699.91
2022-10-09T11:32:24.914Z,53691.94
2022-10-09T11:34:59.727Z,53672.06
2022-10-09T11:37:35.087Z,53632.31
2022-10-09T11:40:15.231Z,53612.44
2022-10-09T11:42:46.635Z,53630.31
2022-10-09T11:45:24.622Z,53622.38
2022-10-09T11:48:01.835Z,53606.47
2022-10-09T11:50:43.961Z,53524.94
2022-10-09T11:53:16.170Z,53542.84
2022-10-09T11:55:48.364Z,53558.75
2022-10-09T11:58:25.250Z,53538.88
2022-10-09T12:00:57.510Z,53538.88
2022-10-09T12:03:33.591Z,53528.94
2022-10-09T12:06:09.464Z,53536.88
2022-10-09T12:08:39.553Z,53518.97
2022-10-09T12:11:19.353Z,53532.91
2022-10-09T12:13:51.698Z,53483.19
2022-10-09T12:16:35.211Z,53515.00
2022-10-09T12:19:06.139Z,53475.25
2022-10-09T12:21:41.208Z,53489.16
2022-10-09T12:24:17.847Z,53489.16
2022-10-09T12:26:49.120Z,53435.47
2022-10-09T12:29:24.562Z,53423.56
2022-10-09T12:31:57.976Z,53435.47
2022-10-09T12:34:29.145Z,53425.53
2022-10-09T12:37:19.031Z,53403.69
2022-10-09T12:39:50.444Z,53375.84
2022-10-09T12:42:25.816Z,53407.66
2022-10-09T12:44:56.653Z,53371.88
2022-10-09T12:47:28.470Z,53373.84
2022-10-09T12:50:02.274Z,53348.00
2022-10-09T12:52:33.208Z,53367.91
2022-10-09T12:55:03.765Z,53348.00
2022-10-09T12:57:34.299Z,53288.38
2022-10-09T13:00:02.939Z,53300.31
2022-10-09T13:02:31.756Z,53288.38
2022-10-09T13:05:02.369Z,53264.53
2022-10-09T13:07:32.587Z,53256.56
2022-10-09T13:10:04.084Z,53256.56
2022-10-09T13:12:35.067Z,53232.72
2022-10-09T13:15:05.966Z,53208.84
2022-10-09T13:17:36.456Z,53236.69
2022-10-09T13:20:25.705Z,53220.78
2022-10-09T13:22:55.469Z,53206.88
2022-10-09T13:25:24.302Z,53208.84
2022-10-09T13:27:54.368Z,53204.88
2022-10-09T13:30:23.062Z,53208.84
2022-10-09T13:32:51.516Z,53198.91
2022-10-09T13:35:19.986Z,53234.69
2022-10-09T13:37:48.831Z,53208.84
2022-10-09T13:40:21.813Z,53210.84
2022-10-09T13:42:55.155Z,53220.78
2022-10-09T13:45:24.501Z,53192.94
2022-10-09T13:47:53.201Z,53208.84
2022-10-09T13:50:22.216Z,53212.84
2022-10-09T13:52:50.893Z,53218.81
2022-10-09T13:55:19.600Z,53228.75
2022-10-09T13:57:48.537Z,53236.69
2022-10-09T14:00:18.734Z,53210.84
2022-10-09T14:02:47.385Z,53216.81
2022-10-09T14:05:16.107Z,53252.59
2022-10-09T14:07:45.292Z,53236.69
2022-10-09T14:10:14.253Z,53212.84
2022-10-09T14:12:42.634Z,53242.66
2022-10-09T14:15:11.773Z,53264.53
2022-10-09T14:17:41.463Z,53224.75
2022-10-09T14:20:10.451Z,53224.75
2022-10-09T14:22:38.874Z,53272.47
2022-10-09T14:25:08.700Z,53256.56
2022-10-09T14:27:39.282Z,53252.59
2022-10-09T14:30:11.283Z,53282.41
2022-10-09T14:32:39.525Z,53284.41
2022-10-09T14:35:10.131Z,53308.25
2022-10-09T14:37:42.438Z,53252.59
2022-10-09T14:40:13.216Z,53316.22
2022-10-09T14:42:42.165Z,53292.34
2022-10-09T14:45:11.974Z,53288.38
2022-10-09T14:47:40.470Z,53310.25
2022-10-09T14:50:11.651Z,53298.31
2022-10-09T14:52:40.053Z,53320.19
2022-10-09T14:55:09.572Z,53292.34
2022-10-09T14:57:38.654Z,53300.31
2022-10-09T15:00:08.359Z,53304.28
2022-10-09T15:02:36.743Z,53292.34
2022-10-09T15:05:07.038Z,53294.34
2022-10-09T15:07:36.708Z,53324.16
2022-10-09T15:10:05.364Z,53316.22
2022-10-09T15:12:33.714Z,53310.25
2022-10-09T15:15:02.200Z,53361.94
2022-10-09T15:17:30.830Z,53348.00
2022-10-09T15:19:59.439Z,53320.19
2022-10-09T15:22:27.830Z,53348.00
2022-10-09T15:24:57.608Z,53328.13
2022-10-09T15:27:26.092Z,53308.25
2022-10-09T15:29:54.509Z,53308.25
2022-10-09T15:32:22.932Z,53350.00
2022-10-09T15:34:51.410Z,53359.94
2022-10-09T15:37:19.814Z,53322.16
2022-10-09T15:39:48.124Z,53350.00
2022-10-09T15:42:17.921Z,53352.00
2022-10-09T15:44:46.181Z,53324.16
2022-10-09T15:47:16.515Z,53340.06
2022-10-09T15:49:46.611Z,53312.22
2022-10-09T15:52:17.506Z,53363.91
2022-10-09T15:54:45.864Z,53336.09
2022-10-09T15:57:14.116Z,53367.91
2022-10-09T15:59:43.925Z,53359.94
2022-10-09T16:02:13.307Z,53383.78
2022-10-09T16:04:41.764Z,53312.22
2022-10-09T16:07:10.222Z,53342.06
2022-10-09T16:09:39.127Z,53367.91
2022-10-09T16:12:07.620Z,53377.84
2022-10-09T16:14:36.035Z,53352.00
2022-10-09T16:17:10.958Z,53363.91
2022-10-09T16:19:39.848Z,53359.94
2022-10-09T16:22:08.439Z,53391.75
2022-10-09T16:24:36.907Z,53403.69
2022-10-09T16:27:05.383Z,53395.72
2022-10-09T16:29:34.060Z,53403.69
2022-10-09T16:32:02.367Z,53449.41
2022-10-09T16:34:32.227Z,53423.56
2022-10-09T16:37:02.345Z,53417.59
2022-10-09T16:39:30.722Z,53427.53
2022-10-09T16:42:03.733Z,53433.50
2022-10-09T16:44:32.532Z,53415.59
2022-10-09T16:47:00.973Z,53449.41
2022-10-09T16:49:29.338Z,53439.47
2022-10-09T16:52:00.623Z,53449.41
2022-10-09T16:54:28.971Z,53479.22
2022-10-09T16:56:57.451Z,53459.34
2022-10-09T16:59:25.904Z,53487.19
2022-10-09T17:01:55.467Z,53487.19
2022-10-09T17:04:24.145Z,53471.28
2022-10-09T17:06:53.353Z,53495.13
2022-10-09T17:09:23.542Z,53503.06
2022-10-09T17:11:52.022Z,53495.13
2022-10-09T17:14:20.616Z,53524.94
2022-10-09T17:16:49.131Z,53518.97
2022-10-09T17:19:18.199Z,53507.06
2022-10-09T17:21:46.688Z,53546.81
2022-10-09T17:24:16.445Z,53536.88
2022-10-09T17:26:46.218Z,53534.88
2022-10-09T17:29:15.221Z,53582.59
2022-10-09T17:31:43.946Z,53558.75
2022-10-09T17:34:13.632Z,53556.75
2022-10-09T17:36:44.172Z,53570.69
2022-10-09T17:39:14.633Z,53644.22
2022-10-09T17:41:47.216Z,53648.22
2022-10-09T17:44:16.650Z,53636.28
2022-10-09T17:46:45.041Z,53646.22
2022-10-09T17:49:13.763Z,53634.28
2022-10-09T17:51:42.448Z,53644.22
2022-10-09T17:54:13.914Z,53666.09
2022-10-09T17:56:42.646Z,53695.94
2022-10-09T17:59:12.467Z,53695.94
2022-10-09T18:01:40.787Z,53717.78
2022-10-09T18:04:15.116Z,53737.69
2022-10-09T18:06:43.734Z,53733.69
2022-10-09T18:09:12.475Z,53747.63
2022-10-09T18:11:41.021Z,53767.50
2022-10-09T18:14:10.018Z,53769.50
2022-10-09T18:16:40.504Z,53791.34
2022-10-09T18:19:12.325Z,53789.38
2022-10-09T18:21:42.859Z,53851.00
2022-10-09T18:24:11.823Z,53825.16
2022-10-09T18:26:40.553Z,53817.22
2022-10-09T18:29:09.072Z,53833.13
2022-10-09T18:31:39.698Z,53809.25
2022-10-09T18:34:08.191Z,53827.16
2022-10-09T18:36:36.781Z,53821.19
2022-10-09T18:39:08.541Z,53823.16
2022-10-09T18:41:37.730Z,53815.22
2022-10-09T18:44:07.545Z,53833.13
2022-10-09T18:46:39.755Z,53817.22
2022-10-09T18:49:12.904Z,53809.25
2022-10-09T18:51:43.299Z,53789.38
2022-10-09T18:54:17.110Z,53801.31
2022-10-09T18:56:46.904Z,53789.38
2022-10-09T18:59:17.999Z,53809.25
2022-10-09T19:01:46.682Z,53819.19
2022-10-09T19:04:19.410Z,53783.41
2022-10-09T19:06:47.936Z,53801.31
2022-10-09T19:09:17.449Z,53853.00
2022-10-09T19:11:46.938Z,53813.22
2022-10-09T19:14:15.967Z,53827.16
2022-10-09T19:16:44.511Z,53839.06
2022-10-09T19:19:13.251Z,53860.94
2022-10-09T19:21:44.415Z,53829.13
2022-10-09T19:24:14.144Z,53845.03
2022-10-09T19:26:43.228Z,53847.03
2022-10-09T19:29:11.884Z,53847.03
2022-10-09T19:31:40.465Z,53837.09
2022-10-09T19:34:09.352Z,53888.78
2022-10-09T19:36:38.238Z,53837.09
2022-10-09T19:39:09.797Z,53874.88
2022-10-09T19:41:41.988Z,53854.97
2022-10-09T19:44:11.163Z,53817.22
2022-10-09T19:46:41.184Z,53874.88
2022-10-09T19:49:10.274Z,53856.97
2022-10-09T19:51:39.276Z,53868.91
2022-10-09T19:54:10.682Z,53860.94
2022-10-09T19:56:40.828Z,53866.91
2022-10-09T19:59:10.254Z,53827.16
2022-10-09T20:01:40.528Z,53868.91
2022-10-09T20:04:11.215Z,53880.84
2022-10-09T20:06:41.586Z,53908.66
2022-10-09T20:09:13.105Z,53862.94
2022-10-09T20:11:41.780Z,53880.84
2022-10-09T20:14:11.023Z,53862.94
2022-10-09T20:16:39.769Z,53880.84
2022-10-09T20:19:08.372Z,53874.88
2022-10-09T20:21:36.821Z,53890.78
2022-10-09T20:24:06.211Z,53892.75
2022-10-09T20:26:38.663Z,53912.66
2022-10-09T20:29:10.687Z,53900.72
2022-10-09T20:31:39.474Z,53900.72
2022-10-09T20:34:08.566Z,53908.66
2022-10-09T20:36:39.220Z,53888.78
2022-10-09T20:39:09.713Z,53916.63
2022-10-09T20:41:40.190Z,53964.34
2022-10-09T20:44:08.724Z,53964.34
2022-10-09T20:46:38.929Z,53972.28
2022-10-09T20:49:09.576Z,53972.28
2022-10-09T20:51:40.860Z,54000.13
2022-10-09T20:54:16.213Z,53996.16
2022-10-09T20:56:46.337Z,54016.03
2022-10-09T20:59:15.359Z,53996.16
2022-10-09T21:01:44.065Z,54000.13
2022-10-09T21:04:12.757Z,54039.91
2022-10-09T21:06:41.890Z,54059.78
2022-10-09T21:09:10.767Z,54031.94
2022-10-09T21:11:40.537Z,54043.88
2022-10-09T21:14:11.124Z,54012.06
2022-10-09T21:16:39.751Z,54043.88
2022-10-09T21:19:08.038Z,54027.97
2022-10-09T21:21:36.671Z,54043.88
2022-10-09T21:24:05.464Z,54055.81
2022-10-09T21:26:35.863Z,54031.94
2022-10-09T21:29:05.156Z,54039.91
2022-10-09T21:31:35.498Z,54049.84
2022-10-09T21:34:04.124Z,54083.66
2022-10-09T21:36:41.086Z,54039.91
2022-10-09T21:39:19.453Z,54043.88
2022-10-09T21:41:47.836Z,54051.81
2022-10-09T21:44:16.188Z,54035.91
2022-10-09T21:46:45.989Z,54035.91
2022-10-09T21:49:21.119Z,54049.84
2022-10-09T21:51:49.696Z,54035.91
2022-10-09T21:54:18.265Z,54024.00
2022-10-09T21:56:46.645Z,54039.91
2022-10-09T21:59:15.250Z,54039.91
2022-10-09T22:01:43.805Z,53978.25
2022-10-09T22:04:13.617Z,54004.09
2022-10-09T22:06:43.347Z,54010.06
2022-10-09T22:09:15.422Z,54043.88
2022-10-09T22:11:45.016Z,54025.97
2022-10-09T22:14:13.909Z,54020.00
2022-10-09T22:16:42.296Z,54055.81
2022-10-09T22:19:10.716Z,54037.91
2022-10-09T22:21:40.518Z,54033.94
2022-10-09T22:24:08.848Z,54079.66
2022-10-09T22:26:37.221Z,54069.72
2022-10-09T22:29:05.543Z,54051.81
2022-10-09T22:31:33.889Z,54081.66
2022-10-09T22:34:03.183Z,54067.75
2022-10-09T22:36:33.227Z,54077.69
2022-10-09T22:39:05.128Z,54075.69
2022-10-09T22:41:36.119Z,54101.53
2022-10-09T22:44:05.656Z,54151.25
2022-10-09T22:46:36.658Z,54143.28
2022-10-09T22:49:05.959Z,54169.16
2022-10-09T22:51:34.555Z,54167.16
2022-10-09T22:54:04.671Z,54230.78
2022-10-09T22:56:36.168Z,54222.84
2022-10-09T22:59:05.600Z,54179.09
2022-10-09T23:01:36.634Z,54193.00
2022-10-09T23:04:08.685Z,54198.97
2022-10-09T23:06:37.416Z,54246.69
2022-10-09T23:09:09.184Z,54284.47
2022-10-09T23:11:37.941Z,54276.53
2022-10-09T23:14:07.404Z,54304.38
2022-10-09T23:16:39.058Z,54274.53
2022-10-09T23:19:08.024Z,54276.53
2022-10-09T23:21:38.005Z,54302.38
2022-10-09T23:24:08.636Z,54326.25
2022-10-09T23:26:37.535Z,54350.09
2022-10-09T23:29:10.121Z,54348.13
2022-10-09T23:31:38.514Z,54352.09
2022-10-09T23:34:07.859Z,54435.59
2022-10-09T23:36:36.272Z,54425.66
2022-10-09T23:39:07.615Z,54435.59
2022-10-09T23:41:36.422Z,54425.66
2022-10-09T23:44:05.098Z,54429.66
2022-10-09T23:46:34.150Z,54449.53
2022-10-09T23:49:03.000Z,54435.59
2022-10-09T23:51:34.006Z,54473.41
2022-10-09T23:54:02.605Z,54491.28
2022-10-09T23:56:34.887Z,54441.56
2022-10-09T23:59:07.384Z,54459.47
